sensor_id;sensor_type;location;lat;lon;timestamp;P1;durP1;ratioP1;P2;durP2;ratioP2
39256;SDS011;67272;48.066;11.038;2023-08-31T00:01:53;2.63;;;2.42;;
39256;SDS011;67272;48.066;11.038;2023-08-31T00:04:22;2.53;;;2.33;;
39256;SDS011;67272;48.066;11.038;2023-08-31T00:06:52;2.97;;;2.70;;
39256;SDS011;67272;48.066;11.038;2023-08-31T00:09:24;2.78;;;2.58;;
39256;SDS011;67272;48.066;11.038;2023-08-31T00:11:53;2.47;;;2.28;;
39256;SDS011;67272;48.066;11.038;2023-08-31T00:14:22;2.70;;;2.50;;
39256;SDS011;67272;48.066;11.038;2023-08-31T00:16:54;2.70;;;2.50;;
39256;SDS011;67272;48.066;11.038;2023-08-31T00:19:26;2.55;;;2.33;;
39256;SDS011;67272;48.066;11.038;2023-08-31T00:21:55;2.78;;;2.58;;
39256;SDS011;67272;48.066;11.038;2023-08-31T00:24:21;3.05;;;2.75;;
39256;SDS011;67272;48.066;11.038;2023-08-31T00:26:56;2.72;;;2.53;;
39256;SDS011;67272;48.066;11.038;2023-08-31T00:29:35;2.85;;;2.60;;
39256;SDS011;67272;48.066;11.038;2023-08-31T00:32:04;2.65;;;2.45;;
39256;SDS011;67272;48.066;11.038;2023-08-31T00:34:31;2.58;;;2.38;;
39256;SDS011;67272;48.066;11.038;2023-08-31T00:36:58;2.65;;;2.45;;
39256;SDS011;67272;48.066;11.038;2023-08-31T00:39:24;3.05;;;2.67;;
39256;SDS011;67272;48.066;11.038;2023-08-31T00:41:52;2.58;;;2.38;;
39256;SDS011;67272;48.066;11.038;2023-08-31T00:44:21;2.60;;;2.40;;
39256;SDS011;67272;48.066;11.038;2023-08-31T00:46:51;2.63;;;2.42;;
39256;SDS011;67272;48.066;11.038;2023-08-31T00:49:17;2.70;;;2.50;;
39256;SDS011;67272;48.066;11.038;2023-08-31T00:51:44;2.78;;;2.58;;
39256;SDS011;67272;48.066;11.038;2023-08-31T00:54:16;2.63;;;2.42;;
39256;SDS011;67272;48.066;11.038;2023-08-31T00:56:53;2.60;;;2.40;;
39256;SDS011;67272;48.066;11.038;2023-08-31T00:59:26;2.55;;;2.35;;
39256;SDS011;67272;48.066;11.038;2023-08-31T01:02:11;2.70;;;2.50;;
39256;SDS011;67272;48.066;11.038;2023-08-31T01:10:22;2.75;;;2.53;;
39256;SDS011;67272;48.066;11.038;2023-08-31T01:13:02;2.60;;;2.40;;
39256;SDS011;67272;48.066;11.038;2023-08-31T01:15:30;2.80;;;2.60;;
39256;SDS011;67272;48.066;11.038;2023-08-31T01:17:57;2.58;;;2.40;;
39256;SDS011;67272;48.066;11.038;2023-08-31T01:23:16;2.47;;;2.28;;
39256;SDS011;67272;48.066;11.038;2023-08-31T01:25:45;2.53;;;2.33;;
39256;SDS011;67272;48.066;11.038;2023-08-31T01:28:14;3.05;;;2.85;;
39256;SDS011;67272;48.066;11.038;2023-08-31T01:30:41;2.83;;;2.60;;
39256;SDS011;67272;48.066;11.038;2023-08-31T01:33:07;2.45;;;2.25;;
39256;SDS011;67272;48.066;11.038;2023-08-31T01:35:35;2.60;;;2.40;;
39256;SDS011;67272;48.066;11.038;2023-08-31T01:38:04;3.10;;;2.80;;
39256;SDS011;67272;48.066;11.038;2023-08-31T01:43:11;2.63;;;2.42;;
39256;SDS011;67272;48.066;11.038;2023-08-31T01:45:37;2.50;;;2.40;;
39256;SDS011;67272;48.066;11.038;2023-08-31T01:48:04;2.90;;;2.60;;
39256;SDS011;67272;48.066;11.038;2023-08-31T01:50:31;2.75;;;2.55;;
39256;SDS011;67272;48.066;11.038;2023-08-31T01:52:57;3.00;;;2.40;;
39256;SDS011;67272;48.066;11.038;2023-08-31T01:55:25;2.50;;;2.30;;
39256;SDS011;67272;48.066;11.038;2023-08-31T01:57:58;2.90;;;2.70;;
39256;SDS011;67272;48.066;11.038;2023-08-31T02:00:27;3.25;;;2.95;;
39256;SDS011;67272;48.066;11.038;2023-08-31T02:02:55;4.60;;;4.07;;
39256;SDS011;67272;48.066;11.038;2023-08-31T02:05:21;3.63;;;2.92;;
39256;SDS011;67272;48.066;11.038;2023-08-31T02:07:50;2.97;;;2.78;;
39256;SDS011;67272;48.066;11.038;2023-08-31T02:10:17;3.78;;;3.47;;
39256;SDS011;67272;48.066;11.038;2023-08-31T02:12:43;3.50;;;3.20;;
39256;SDS011;67272;48.066;11.038;2023-08-31T02:15:13;3.28;;;3.08;;
39256;SDS011;67272;48.066;11.038;2023-08-31T02:17:42;3.35;;;3.15;;
39256;SDS011;67272;48.066;11.038;2023-08-31T02:20:08;3.58;;;3.28;;
39256;SDS011;67272;48.066;11.038;2023-08-31T02:22:35;3.10;;;2.90;;
39256;SDS011;67272;48.066;11.038;2023-08-31T02:25:02;2.70;;;2.50;;
39256;SDS011;67272;48.066;11.038;2023-08-31T02:27:28;3.08;;;2.80;;
39256;SDS011;67272;48.066;11.038;2023-08-31T02:29:54;2.72;;;2.53;;
39256;SDS011;67272;48.066;11.038;2023-08-31T02:32:26;2.50;;;2.30;;
39256;SDS011;67272;48.066;11.038;2023-08-31T02:34:52;2.63;;;2.42;;
39256;SDS011;67272;48.066;11.038;2023-08-31T02:37:18;2.47;;;2.28;;
39256;SDS011;67272;48.066;11.038;2023-08-31T02:39:45;2.47;;;2.28;;
39256;SDS011;67272;48.066;11.038;2023-08-31T02:42:11;2.83;;;2.50;;
39256;SDS011;67272;48.066;11.038;2023-08-31T02:44:37;2.30;;;2.10;;
39256;SDS011;67272;48.066;11.038;2023-08-31T02:47:04;2.22;;;2.03;;
39256;SDS011;67272;48.066;11.038;2023-08-31T02:49:30;2.30;;;2.10;;
39256;SDS011;67272;48.066;11.038;2023-08-31T02:51:57;2.22;;;2.03;;
39256;SDS011;67272;48.066;11.038;2023-08-31T02:54:23;2.70;;;2.50;;
39256;SDS011;67272;48.066;11.038;2023-08-31T02:56:53;2.50;;;2.30;;
39256;SDS011;67272;48.066;11.038;2023-08-31T02:59:25;2.70;;;2.50;;
39256;SDS011;67272;48.066;11.038;2023-08-31T03:01:54;3.40;;;3.08;;
39256;SDS011;67272;48.066;11.038;2023-08-31T03:04:21;2.60;;;2.40;;
39256;SDS011;67272;48.066;11.038;2023-08-31T03:06:48;2.70;;;2.50;;
39256;SDS011;67272;48.066;11.038;2023-08-31T03:09:21;2.55;;;2.35;;
39256;SDS011;67272;48.066;11.038;2023-08-31T03:11:47;2.80;;;2.60;;
39256;SDS011;67272;48.066;11.038;2023-08-31T03:14:16;2.88;;;2.65;;
39256;SDS011;67272;48.066;11.038;2023-08-31T03:16:43;3.53;;;2.95;;
39256;SDS011;67272;48.066;11.038;2023-08-31T03:19:09;3.38;;;3.08;;
39256;SDS011;67272;48.066;11.038;2023-08-31T03:21:35;3.20;;;2.90;;
39256;SDS011;67272;48.066;11.038;2023-08-31T03:24:02;3.22;;;3.03;;
39256;SDS011;67272;48.066;11.038;2023-08-31T03:26:28;3.50;;;3.20;;
39256;SDS011;67272;48.066;11.038;2023-08-31T03:29:05;3.40;;;3.10;;
39256;SDS011;67272;48.066;11.038;2023-08-31T03:31:31;3.40;;;3.10;;
39256;SDS011;67272;48.066;11.038;2023-08-31T03:34:01;3.85;;;3.55;;
39256;SDS011;67272;48.066;11.038;2023-08-31T03:36:27;3.60;;;3.30;;
39256;SDS011;67272;48.066;11.038;2023-08-31T03:38:54;3.60;;;3.30;;
39256;SDS011;67272;48.066;11.038;2023-08-31T03:41:20;3.78;;;3.47;;
39256;SDS011;67272;48.066;11.038;2023-08-31T03:43:50;3.95;;;3.65;;
39256;SDS011;67272;48.066;11.038;2023-08-31T03:46:33;4.55;;;4.10;;
39256;SDS011;67272;48.066;11.038;2023-08-31T03:49:05;4.30;;;3.97;;
39256;SDS011;67272;48.066;11.038;2023-08-31T03:51:31;3.97;;;3.65;;
39256;SDS011;67272;48.066;11.038;2023-08-31T03:53:58;3.95;;;3.65;;
39256;SDS011;67272;48.066;11.038;2023-08-31T03:56:30;4.00;;;3.70;;
39256;SDS011;67272;48.066;11.038;2023-08-31T03:59:02;4.05;;;3.65;;
39256;SDS011;67272;48.066;11.038;2023-08-31T04:01:34;4.10;;;3.80;;
39256;SDS011;67272;48.066;11.038;2023-08-31T04:04:00;4.07;;;3.67;;
39256;SDS011;67272;48.066;11.038;2023-08-31T04:06:27;4.50;;;4.00;;
39256;SDS011;67272;48.066;11.038;2023-08-31T04:08:54;4.57;;;4.05;;
39256;SDS011;67272;48.066;11.038;2023-08-31T04:11:24;4.28;;;3.97;;
39256;SDS011;67272;48.066;11.038;2023-08-31T04:13:52;3.95;;;3.63;;
39256;SDS011;67272;48.066;11.038;2023-08-31T04:16:21;4.88;;;4.47;;
39256;SDS011;67272;48.066;11.038;2023-08-31T04:18:50;4.88;;;4.38;;
39256;SDS011;67272;48.066;11.038;2023-08-31T04:21:17;5.55;;;4.50;;
39256;SDS011;67272;48.066;11.038;2023-08-31T04:23:44;5.90;;;5.40;;
39256;SDS011;67272;48.066;11.038;2023-08-31T04:26:14;5.65;;;5.15;;
39256;SDS011;67272;48.066;11.038;2023-08-31T04:28:42;5.20;;;4.72;;
39256;SDS011;67272;48.066;11.038;2023-08-31T04:31:09;4.60;;;4.30;;
39256;SDS011;67272;48.066;11.038;2023-08-31T04:33:36;4.88;;;4.35;;
39256;SDS011;67272;48.066;11.038;2023-08-31T04:36:21;4.60;;;4.20;;
39256;SDS011;67272;48.066;11.038;2023-08-31T04:38:51;4.72;;;4.32;;
39256;SDS011;67272;48.066;11.038;2023-08-31T04:41:18;4.90;;;4.50;;
39256;SDS011;67272;48.066;11.038;2023-08-31T04:43:47;3.97;;;3.67;;
39256;SDS011;67272;48.066;11.038;2023-08-31T04:46:14;4.82;;;4.43;;
39256;SDS011;67272;48.066;11.038;2023-08-31T04:48:40;5.38;;;4.88;;
39256;SDS011;67272;48.066;11.038;2023-08-31T04:51:26;5.13;;;4.72;;
39256;SDS011;67272;48.066;11.038;2023-08-31T04:53:53;5.03;;;4.63;;
39256;SDS011;67272;48.066;11.038;2023-08-31T04:56:30;5.40;;;4.90;;
39256;SDS011;67272;48.066;11.038;2023-08-31T04:59:01;5.70;;;5.20;;
39256;SDS011;67272;48.066;11.038;2023-08-31T05:01:33;4.70;;;4.30;;
39256;SDS011;67272;48.066;11.038;2023-08-31T05:03:59;4.28;;;3.97;;
39256;SDS011;67272;48.066;11.038;2023-08-31T05:06:26;4.05;;;3.75;;
39256;SDS011;67272;48.066;11.038;2023-08-31T05:08:55;3.75;;;3.45;;
39256;SDS011;67272;48.066;11.038;2023-08-31T05:11:22;4.25;;;3.22;;
39256;SDS011;67272;48.066;11.038;2023-08-31T05:13:54;3.88;;;3.45;;
39256;SDS011;67272;48.066;11.038;2023-08-31T05:16:20;2.80;;;2.60;;
39256;SDS011;67272;48.066;11.038;2023-08-31T05:18:48;2.95;;;2.75;;
39256;SDS011;67272;48.066;11.038;2023-08-31T05:21:14;2.78;;;2.58;;
39256;SDS011;67272;48.066;11.038;2023-08-31T05:23:44;2.50;;;2.30;;
39256;SDS011;67272;48.066;11.038;2023-08-31T05:26:13;2.67;;;2.47;;
39256;SDS011;67272;48.066;11.038;2023-08-31T05:28:40;2.70;;;2.50;;
39256;SDS011;67272;48.066;11.038;2023-08-31T05:31:08;2.50;;;2.30;;
39256;SDS011;67272;48.066;11.038;2023-08-31T05:33:34;2.53;;;2.33;;
39256;SDS011;67272;48.066;11.038;2023-08-31T05:36:04;2.38;;;2.22;;
39256;SDS011;67272;48.066;11.038;2023-08-31T05:38:30;2.67;;;2.47;;
39256;SDS011;67272;48.066;11.038;2023-08-31T05:41:30;2.47;;;2.28;;
39256;SDS011;67272;48.066;11.038;2023-08-31T05:43:50;2.25;;;2.15;;
39256;SDS011;67272;48.066;11.038;2023-08-31T05:46:16;2.63;;;2.28;;
39256;SDS011;67272;48.066;11.038;2023-08-31T05:48:46;2.60;;;2.40;;
39256;SDS011;67272;48.066;11.038;2023-08-31T05:51:12;2.83;;;2.40;;
39256;SDS011;67272;48.066;11.038;2023-08-31T05:53:39;2.65;;;2.30;;
39256;SDS011;67272;48.066;11.038;2023-08-31T05:56:05;2.38;;;2.05;;
39256;SDS011;67272;48.066;11.038;2023-08-31T05:58:32;2.58;;;2.40;;
39256;SDS011;67272;48.066;11.038;2023-08-31T06:00:59;3.10;;;2.50;;
39256;SDS011;67272;48.066;11.038;2023-08-31T06:03:29;2.97;;;2.70;;
39256;SDS011;67272;48.066;11.038;2023-08-31T06:05:56;2.80;;;2.60;;
39256;SDS011;67272;48.066;11.038;2023-08-31T06:08:23;3.22;;;2.35;;
39256;SDS011;67272;48.066;11.038;2023-08-31T06:10:52;3.20;;;2.90;;
39256;SDS011;67272;48.066;11.038;2023-08-31T06:13:18;3.00;;;2.60;;
39256;SDS011;67272;48.066;11.038;2023-08-31T06:15:45;2.65;;;2.45;;
39256;SDS011;67272;48.066;11.038;2023-08-31T06:18:11;2.60;;;2.40;;
39256;SDS011;67272;48.066;11.038;2023-08-31T06:20:38;2.83;;;2.53;;
39256;SDS011;67272;48.066;11.038;2023-08-31T06:23:09;2.70;;;2.50;;
39256;SDS011;67272;48.066;11.038;2023-08-31T06:25:35;3.30;;;2.67;;
39256;SDS011;67272;48.066;11.038;2023-08-31T06:28:05;3.22;;;2.92;;
39256;SDS011;67272;48.066;11.038;2023-08-31T06:30:34;3.13;;;2.83;;
39256;SDS011;67272;48.066;11.038;2023-08-31T06:33:00;2.97;;;2.78;;
39256;SDS011;67272;48.066;11.038;2023-08-31T06:35:27;3.10;;;2.90;;
39256;SDS011;67272;48.066;11.038;2023-08-31T06:37:56;2.88;;;2.67;;
39256;SDS011;67272;48.066;11.038;2023-08-31T06:40:23;3.17;;;2.88;;
39256;SDS011;67272;48.066;11.038;2023-08-31T06:42:53;3.20;;;2.90;;
39256;SDS011;67272;48.066;11.038;2023-08-31T06:45:19;3.40;;;2.83;;
39256;SDS011;67272;48.066;11.038;2023-08-31T06:47:46;2.88;;;2.67;;
39256;SDS011;67272;48.066;11.038;2023-08-31T06:50:15;3.42;;;2.63;;
39256;SDS011;67272;48.066;11.038;2023-08-31T06:52:44;3.38;;;2.78;;
39256;SDS011;67272;48.066;11.038;2023-08-31T06:55:15;3.05;;;2.78;;
39256;SDS011;67272;48.066;11.038;2023-08-31T06:57:42;3.40;;;2.60;;
39256;SDS011;67272;48.066;11.038;2023-08-31T07:00:15;2.70;;;2.38;;
39256;SDS011;67272;48.066;11.038;2023-08-31T07:02:45;3.55;;;2.58;;
39256;SDS011;67272;48.066;11.038;2023-08-31T07:05:14;2.80;;;2.60;;
39256;SDS011;67272;48.066;11.038;2023-08-31T07:07:40;3.55;;;2.50;;
39256;SDS011;67272;48.066;11.038;2023-08-31T07:10:07;2.80;;;2.55;;
39256;SDS011;67272;48.066;11.038;2023-08-31T07:12:36;2.90;;;2.70;;
39256;SDS011;67272;48.066;11.038;2023-08-31T07:15:05;2.35;;;2.15;;
39256;SDS011;67272;48.066;11.038;2023-08-31T07:17:32;3.67;;;2.50;;
39256;SDS011;67272;48.066;11.038;2023-08-31T07:19:58;2.60;;;2.30;;
39256;SDS011;67272;48.066;11.038;2023-08-31T07:22:25;2.50;;;2.30;;
39256;SDS011;67272;48.066;11.038;2023-08-31T07:24:54;2.50;;;2.30;;
39256;SDS011;67272;48.066;11.038;2023-08-31T07:27:21;2.22;;;2.00;;
39256;SDS011;67272;48.066;11.038;2023-08-31T07:29:47;3.10;;;2.25;;
39256;SDS011;67272;48.066;11.038;2023-08-31T07:32:16;3.75;;;2.25;;
39256;SDS011;67272;48.066;11.038;2023-08-31T07:34:43;2.67;;;2.28;;
39256;SDS011;67272;48.066;11.038;2023-08-31T07:37:15;2.67;;;2.40;;
39256;SDS011;67272;48.066;11.038;2023-08-31T07:39:41;4.15;;;2.30;;
39256;SDS011;67272;48.066;11.038;2023-08-31T07:42:07;3.22;;;2.30;;
39256;SDS011;67272;48.066;11.038;2023-08-31T07:44:34;3.33;;;2.13;;
39256;SDS011;67272;48.066;11.038;2023-08-31T07:47:07;3.97;;;2.42;;
39256;SDS011;67272;48.066;11.038;2023-08-31T07:49:33;2.38;;;2.17;;
39256;SDS011;67272;48.066;11.038;2023-08-31T07:52:00;2.45;;;2.25;;
39256;SDS011;67272;48.066;11.038;2023-08-31T07:54:31;2.38;;;2.17;;
39256;SDS011;67272;48.066;11.038;2023-08-31T07:57:01;2.30;;;2.10;;
39256;SDS011;67272;48.066;11.038;2023-08-31T07:59:27;1.98;;;1.77;;
39256;SDS011;67272;48.066;11.038;2023-08-31T08:01:53;2.97;;;1.90;;
39256;SDS011;67272;48.066;11.038;2023-08-31T08:04:20;2.28;;;2.05;;
39256;SDS011;67272;48.066;11.038;2023-08-31T08:06:49;2.55;;;2.13;;
39256;SDS011;67272;48.066;11.038;2023-08-31T08:09:16;2.30;;;1.92;;
39256;SDS011;67272;48.066;11.038;2023-08-31T08:11:43;2.38;;;1.83;;
39256;SDS011;67272;48.066;11.038;2023-08-31T08:14:09;3.15;;;2.17;;
39256;SDS011;67272;48.066;11.038;2023-08-31T08:16:44;2.03;;;1.83;;
39256;SDS011;67272;48.066;11.038;2023-08-31T08:19:13;2.35;;;1.88;;
39256;SDS011;67272;48.066;11.038;2023-08-31T08:21:42;2.45;;;1.80;;
39256;SDS011;67272;48.066;11.038;2023-08-31T08:24:09;5.03;;;2.40;;
39256;SDS011;67272;48.066;11.038;2023-08-31T08:26:35;2.58;;;1.80;;
39256;SDS011;67272;48.066;11.038;2023-08-31T08:29:04;2.67;;;2.25;;
39256;SDS011;67272;48.066;11.038;2023-08-31T08:31:33;2.05;;;1.85;;
39256;SDS011;67272;48.066;11.038;2023-08-31T08:34:06;2.25;;;1.90;;
39256;SDS011;67272;48.066;11.038;2023-08-31T08:36:32;2.70;;;2.00;;
39256;SDS011;67272;48.066;11.038;2023-08-31T08:39:01;1.90;;;1.80;;
39256;SDS011;67272;48.066;11.038;2023-08-31T08:41:29;1.60;;;1.50;;
39256;SDS011;67272;48.066;11.038;2023-08-31T08:43:55;2.83;;;1.88;;
39256;SDS011;67272;48.066;11.038;2023-08-31T08:46:22;1.73;;;1.63;;
39256;SDS011;67272;48.066;11.038;2023-08-31T08:48:49;1.77;;;1.65;;
39256;SDS011;67272;48.066;11.038;2023-08-31T08:51:19;2.38;;;1.95;;
39256;SDS011;67272;48.066;11.038;2023-08-31T08:53:55;2.75;;;1.83;;
39256;SDS011;67272;48.066;11.038;2023-08-31T08:56:22;2.10;;;1.90;;
39256;SDS011;67272;48.066;11.038;2023-08-31T08:58:48;2.63;;;1.98;;
39256;SDS011;67272;48.066;11.038;2023-08-31T09:01:18;2.30;;;2.10;;
39256;SDS011;67272;48.066;11.038;2023-08-31T09:03:48;2.10;;;1.90;;
39256;SDS011;67272;48.066;11.038;2023-08-31T09:06:15;2.10;;;1.67;;
39256;SDS011;67272;48.066;11.038;2023-08-31T09:08:41;2.10;;;1.95;;
39256;SDS011;67272;48.066;11.038;2023-08-31T09:11:07;2.20;;;2.00;;
39256;SDS011;67272;48.066;11.038;2023-08-31T09:13:37;3.15;;;2.13;;
39256;SDS011;67272;48.066;11.038;2023-08-31T09:16:03;2.35;;;2.15;;
39256;SDS011;67272;48.066;11.038;2023-08-31T09:18:30;2.00;;;1.90;;
39256;SDS011;67272;48.066;11.038;2023-08-31T09:20:58;1.98;;;1.88;;
39256;SDS011;67272;48.066;11.038;2023-08-31T09:23:27;2.47;;;1.95;;
39256;SDS011;67272;48.066;11.038;2023-08-31T09:25:54;2.28;;;2.03;;
39256;SDS011;67272;48.066;11.038;2023-08-31T09:28:22;3.55;;;2.20;;
39256;SDS011;67272;48.066;11.038;2023-08-31T09:30:49;2.22;;;2.03;;
39256;SDS011;67272;48.066;11.038;2023-08-31T09:33:18;2.03;;;1.80;;
39256;SDS011;67272;48.066;11.038;2023-08-31T09:35:56;2.88;;;2.05;;
39256;SDS011;67272;48.066;11.038;2023-08-31T09:38:25;2.33;;;1.80;;
39256;SDS011;67272;48.066;11.038;2023-08-31T09:43:52;3.72;;;2.10;;
39256;SDS011;67272;48.066;11.038;2023-08-31T09:46:19;1.75;;;1.65;;
39256;SDS011;67272;48.066;11.038;2023-08-31T09:48:46;2.63;;;1.90;;
39256;SDS011;67272;48.066;11.038;2023-08-31T09:51:13;2.13;;;1.85;;
39256;SDS011;67272;48.066;11.038;2023-08-31T09:53:41;2.28;;;2.08;;
39256;SDS011;67272;48.066;11.038;2023-08-31T09:56:08;2.35;;;2.00;;
39256;SDS011;67272;48.066;11.038;2023-08-31T09:58:42;2.47;;;2.00;;
39256;SDS011;67272;48.066;11.038;2023-08-31T10:01:08;3.63;;;1.92;;
39256;SDS011;67272;48.066;11.038;2023-08-31T10:03:35;2.35;;;1.70;;
39256;SDS011;67272;48.066;11.038;2023-08-31T10:06:01;2.08;;;1.80;;
39256;SDS011;67272;48.066;11.038;2023-08-31T10:08:28;3.28;;;2.25;;
39256;SDS011;67272;48.066;11.038;2023-08-31T10:10:58;3.15;;;1.90;;
39256;SDS011;67272;48.066;11.038;2023-08-31T10:13:25;1.98;;;1.80;;
39256;SDS011;67272;48.066;11.038;2023-08-31T10:15:52;2.55;;;1.73;;
39256;SDS011;67272;48.066;11.038;2023-08-31T10:18:19;2.10;;;1.88;;
39256;SDS011;67272;48.066;11.038;2023-08-31T10:20:45;2.60;;;1.85;;
39256;SDS011;67272;48.066;11.038;2023-08-31T10:23:12;2.03;;;1.70;;
39256;SDS011;67272;48.066;11.038;2023-08-31T10:28:26;2.13;;;1.73;;
39256;SDS011;67272;48.066;11.038;2023-08-31T10:31:02;1.90;;;1.80;;
39256;SDS011;67272;48.066;11.038;2023-08-31T10:33:30;2.17;;;1.90;;
39256;SDS011;67272;48.066;11.038;2023-08-31T10:36:00;2.78;;;1.95;;
39256;SDS011;67272;48.066;11.038;2023-08-31T10:38:30;2.03;;;1.80;;
39256;SDS011;67272;48.066;11.038;2023-08-31T10:46:18;1.80;;;1.67;;
39256;SDS011;67272;48.066;11.038;2023-08-31T10:48:55;2.95;;;1.95;;
39256;SDS011;67272;48.066;11.038;2023-08-31T10:51:25;2.15;;;1.90;;
39256;SDS011;67272;48.066;11.038;2023-08-31T10:56:30;3.08;;;2.10;;
39256;SDS011;67272;48.066;11.038;2023-08-31T10:58:57;2.35;;;2.15;;
39256;SDS011;67272;48.066;11.038;2023-08-31T11:04:09;2.30;;;1.88;;
39256;SDS011;67272;48.066;11.038;2023-08-31T11:06:39;1.75;;;1.63;;
39256;SDS011;67272;48.066;11.038;2023-08-31T11:09:05;2.95;;;1.90;;
39256;SDS011;67272;48.066;11.038;2023-08-31T11:11:41;2.15;;;1.83;;
39256;SDS011;67272;48.066;11.038;2023-08-31T11:14:08;4.88;;;2.25;;
39256;SDS011;67272;48.066;11.038;2023-08-31T11:16:38;3.03;;;1.80;;
39256;SDS011;67272;48.066;11.038;2023-08-31T11:19:04;2.13;;;1.92;;
39256;SDS011;67272;48.066;11.038;2023-08-31T11:21:31;2.22;;;1.90;;
39256;SDS011;67272;48.066;11.038;2023-08-31T11:23:58;3.03;;;2.00;;
39256;SDS011;67272;48.066;11.038;2023-08-31T11:26:34;2.38;;;2.00;;
39256;SDS011;67272;48.066;11.038;2023-08-31T11:29:00;2.25;;;1.90;;
39256;SDS011;67272;48.066;11.038;2023-08-31T11:31:27;3.15;;;2.15;;
39256;SDS011;67272;48.066;11.038;2023-08-31T11:33:57;2.88;;;2.03;;
39256;SDS011;67272;48.066;11.038;2023-08-31T11:36:26;2.80;;;2.10;;
39256;SDS011;67272;48.066;11.038;2023-08-31T11:38:52;2.83;;;1.83;;
39256;SDS011;67272;48.066;11.038;2023-08-31T11:41:19;2.20;;;2.00;;
39256;SDS011;67272;48.066;11.038;2023-08-31T11:43:46;2.70;;;1.70;;
39256;SDS011;67272;48.066;11.038;2023-08-31T11:46:16;3.15;;;1.92;;
39256;SDS011;67272;48.066;11.038;2023-08-31T11:48:43;3.50;;;1.90;;
39256;SDS011;67272;48.066;11.038;2023-08-31T11:51:10;2.75;;;2.10;;
39256;SDS011;67272;48.066;11.038;2023-08-31T11:53:39;2.80;;;1.80;;
39256;SDS011;67272;48.066;11.038;2023-08-31T11:56:06;2.63;;;1.98;;
39256;SDS011;67272;48.066;11.038;2023-08-31T11:58:41;3.15;;;2.05;;
39256;SDS011;67272;48.066;11.038;2023-08-31T12:01:08;2.83;;;2.20;;
39256;SDS011;67272;48.066;11.038;2023-08-31T12:03:50;2.30;;;1.90;;
39256;SDS011;67272;48.066;11.038;2023-08-31T12:06:16;3.72;;;2.15;;
39256;SDS011;67272;48.066;11.038;2023-08-31T12:08:46;2.83;;;2.45;;
39256;SDS011;67272;48.066;11.038;2023-08-31T12:11:13;3.65;;;2.42;;
39256;SDS011;67272;48.066;11.038;2023-08-31T12:13:40;3.83;;;2.13;;
39256;SDS011;67272;48.066;11.038;2023-08-31T12:16:12;3.25;;;2.20;;
39256;SDS011;67272;48.066;11.038;2023-08-31T12:18:45;3.20;;;2.40;;
39256;SDS011;67272;48.066;11.038;2023-08-31T12:21:11;2.72;;;2.10;;
39256;SDS011;67272;48.066;11.038;2023-08-31T12:23:37;2.33;;;1.88;;
39256;SDS011;67272;48.066;11.038;2023-08-31T12:26:05;2.80;;;2.17;;
39256;SDS011;67272;48.066;11.038;2023-08-31T12:28:33;3.22;;;2.22;;
39256;SDS011;67272;48.066;11.038;2023-08-31T12:31:02;3.13;;;2.25;;
39256;SDS011;67272;48.066;11.038;2023-08-31T12:33:29;2.58;;;2.20;;
39256;SDS011;67272;48.066;11.038;2023-08-31T12:35:56;3.83;;;2.83;;
39256;SDS011;67272;48.066;11.038;2023-08-31T12:38:22;3.25;;;2.38;;
39256;SDS011;67272;48.066;11.038;2023-08-31T12:40:52;3.42;;;2.10;;
39256;SDS011;67272;48.066;11.038;2023-08-31T12:43:18;4.97;;;2.22;;
39256;SDS011;67272;48.066;11.038;2023-08-31T12:45:45;2.53;;;2.00;;
39256;SDS011;67272;48.066;11.038;2023-08-31T12:48:11;2.22;;;2.00;;
39256;SDS011;67272;48.066;11.038;2023-08-31T12:50:38;2.53;;;2.05;;
39256;SDS011;67272;48.066;11.038;2023-08-31T12:53:04;2.10;;;1.88;;
39256;SDS011;67272;48.066;11.038;2023-08-31T12:55:31;2.75;;;2.10;;
39256;SDS011;67272;48.066;11.038;2023-08-31T12:57:57;2.95;;;2.13;;
39256;SDS011;67272;48.066;11.038;2023-08-31T13:00:23;2.75;;;2.00;;
39256;SDS011;67272;48.066;11.038;2023-08-31T13:02:56;2.53;;;2.15;;
39256;SDS011;67272;48.066;11.038;2023-08-31T13:05:22;3.05;;;2.30;;
39256;SDS011;67272;48.066;11.038;2023-08-31T13:07:48;3.60;;;1.90;;
39256;SDS011;67272;48.066;11.038;2023-08-31T13:10:21;2.38;;;1.88;;
39256;SDS011;67272;48.066;11.038;2023-08-31T13:12:47;3.05;;;2.00;;
39256;SDS011;67272;48.066;11.038;2023-08-31T13:15:16;2.55;;;2.20;;
39256;SDS011;67272;48.066;11.038;2023-08-31T13:17:52;2.65;;;1.92;;
39256;SDS011;67272;48.066;11.038;2023-08-31T13:20:24;2.38;;;1.70;;
39256;SDS011;67272;48.066;11.038;2023-08-31T13:22:51;3.05;;;2.03;;
39256;SDS011;67272;48.066;11.038;2023-08-31T13:25:17;2.42;;;2.10;;
39256;SDS011;67272;48.066;11.038;2023-08-31T13:27:47;2.53;;;1.92;;
39256;SDS011;67272;48.066;11.038;2023-08-31T13:30:19;2.63;;;2.00;;
39256;SDS011;67272;48.066;11.038;2023-08-31T13:32:49;3.45;;;2.20;;
39256;SDS011;67272;48.066;11.038;2023-08-31T13:35:18;3.13;;;2.28;;
39256;SDS011;67272;48.066;11.038;2023-08-31T13:37:45;2.28;;;2.00;;
39256;SDS011;67272;48.066;11.038;2023-08-31T13:40:17;2.90;;;1.85;;
39256;SDS011;67272;48.066;11.038;2023-08-31T13:43:02;3.95;;;1.90;;
39256;SDS011;67272;48.066;11.038;2023-08-31T13:45:29;2.75;;;1.92;;
39256;SDS011;67272;48.066;11.038;2023-08-31T13:47:56;2.75;;;1.90;;
39256;SDS011;67272;48.066;11.038;2023-08-31T13:50:27;3.20;;;2.00;;
39256;SDS011;67272;48.066;11.038;2023-08-31T13:52:56;2.53;;;2.03;;
39256;SDS011;67272;48.066;11.038;2023-08-31T13:55:26;2.95;;;1.90;;
39256;SDS011;67272;48.066;11.038;2023-08-31T13:57:52;3.20;;;2.03;;
39256;SDS011;67272;48.066;11.038;2023-08-31T14:00:19;2.20;;;1.85;;
39256;SDS011;67272;48.066;11.038;2023-08-31T14:02:45;4.20;;;2.30;;
39256;SDS011;67272;48.066;11.038;2023-08-31T14:05:17;4.03;;;2.33;;
39256;SDS011;67272;48.066;11.038;2023-08-31T14:07:48;2.33;;;2.03;;
39256;SDS011;67272;48.066;11.038;2023-08-31T14:10:24;2.75;;;2.35;;
39256;SDS011;67272;48.066;11.038;2023-08-31T14:12:53;3.38;;;2.00;;
39256;SDS011;67272;48.066;11.038;2023-08-31T14:15:19;4.13;;;2.10;;
39256;SDS011;67272;48.066;11.038;2023-08-31T14:17:46;3.75;;;2.17;;
39256;SDS011;67272;48.066;11.038;2023-08-31T14:20:19;2.03;;;1.80;;
39256;SDS011;67272;48.066;11.038;2023-08-31T14:22:45;2.50;;;1.88;;
39256;SDS011;67272;48.066;11.038;2023-08-31T14:25:11;3.08;;;2.15;;
39256;SDS011;67272;48.066;11.038;2023-08-31T14:27:41;3.35;;;2.30;;
39256;SDS011;67272;48.066;11.038;2023-08-31T14:30:10;3.55;;;2.10;;
39256;SDS011;67272;48.066;11.038;2023-08-31T14:32:40;4.05;;;2.08;;
39256;SDS011;67272;48.066;11.038;2023-08-31T14:35:06;3.05;;;1.77;;
39256;SDS011;67272;48.066;11.038;2023-08-31T14:37:33;3.17;;;2.22;;
39256;SDS011;67272;48.066;11.038;2023-08-31T14:40:02;2.45;;;2.00;;
39256;SDS011;67272;48.066;11.038;2023-08-31T14:42:33;2.15;;;1.88;;
39256;SDS011;67272;48.066;11.038;2023-08-31T14:45:00;2.65;;;1.90;;
39256;SDS011;67272;48.066;11.038;2023-08-31T14:47:29;3.33;;;1.92;;
39256;SDS011;67272;48.066;11.038;2023-08-31T14:49:56;3.20;;;2.20;;
39256;SDS011;67272;48.066;11.038;2023-08-31T14:52:28;2.83;;;1.85;;
39256;SDS011;67272;48.066;11.038;2023-08-31T14:54:57;3.13;;;1.80;;
39256;SDS011;67272;48.066;11.038;2023-08-31T14:57:23;4.32;;;2.00;;
39256;SDS011;67272;48.066;11.038;2023-08-31T14:59:50;2.40;;;1.70;;
39256;SDS011;67272;48.066;11.038;2023-08-31T15:02:22;2.47;;;1.98;;
39256;SDS011;67272;48.066;11.038;2023-08-31T15:04:48;3.35;;;2.00;;
39256;SDS011;67272;48.066;11.038;2023-08-31T15:07:16;2.80;;;1.90;;
39256;SDS011;67272;48.066;11.038;2023-08-31T15:09:43;2.50;;;2.10;;